San Juan Capistrano, CA (92675)

6:19 AM PDT on August 30, 2015 (GMT -0700)
Ortega | | Change Station
CLOSE
Current Station
Personal Weather Station
Location: San Juan Capistrano, CA
Elevation: 185 ft
Nearby Weather Stations

Elev 185 ft 33.50 °N, 117.60 °W | Updated 1 minute ago

Clear
Clear
65.2 °F
Feels Like 65.2 °F
N
0.0
Wind Variable Wind from ESE
Gusts 0.0 mph

Today
High -- | Low -- °F
--% Chance of Precip.
Yesterday
High -- | Low -- °F
Precip. -- in
6:23 AM 7:18 PM
Full, 99% visible
Pressure 29.87 in
Visibility 10.0 miles
Clouds Clear
Dew Point 58 °F
Humidity 76%
Rainfall 0.00 in
Snow Depth Not available.
UV 0 out of 12
Pollen 6.00 out of 12
Air Quality Not available.
Flu Activity Not available.
METAR KSNA 301253Z AUTO 23003KT 10SM CLR 22/21 A2987 RMK AO2 SLP114 T02220206 TSNO
Pressure 29.87 in
Visibility 10.0 miles
Clouds Clear
Dew Point 58 °F
Humidity 76%
Rainfall 0.00 in
Snow Depth Not available.
UV 0 out of 12
Pollen 6.00 out of 12
Air Quality Not available.
Flu Activity Not available.
METAR KSNA 301253Z AUTO 23003KT 10SM CLR 22/21 A2987 RMK AO2 SLP114 T02220206 TSNO

10-Day Weather Forecast

×

Almanac

Astronomy

Aug. 30, 2015 Rise Set
Actual Time
Civil Twilight
Nautical Twilight
Astronomical Twilight
Moon
Length of Visible Light
Length of Day
Tomorrow will be .
, % of the Moon is Illuminated

Today's Extremes

State Highs State Lows

Community

WunderPhotos

Upload Photos

1,850,946 photos uploaded!

WunderBlogs® & News

Nearby

Air Quality

  Air Quality AQ Index Pollutant
Not available.

Snow Depth

Station Depth Elevation

Earthquake Activity

City Distance Mag. Time & Date
Minimum magnitude displayed is 2.5.

Coastal Water Temperatures

Place Temperature

Stations

Nearby Weather Stations

Station Location Temp. Windchill Dew Point Humidity Wind Precip. Elev Updated Type